createdAt,value
2017-11-04T00:00:18.828Z,6.01
2017-11-04T00:01:18.837Z,6.02
2017-11-04T00:02:18.851Z,5.98
2017-11-04T00:03:18.869Z,5.98
2017-11-04T00:04:18.884Z,6.07
2017-11-04T00:05:18.904Z,6.17
2017-11-04T00:06:18.912Z,6.12
2017-11-04T00:07:18.928Z,6.14
2017-11-04T00:08:18.944Z,6.22
2017-11-04T00:09:18.956Z,6.33
2017-11-04T00:10:18.973Z,6.24
2017-11-04T00:11:18.987Z,6.12
2017-11-04T00:12:19.008Z,6.31
2017-11-04T00:13:19.017Z,6.38
2017-11-04T00:14:19.036Z,6.38
2017-11-04T00:15:19.048Z,6.45
2017-11-04T00:16:19.074Z,6.51
2017-11-04T00:17:19.078Z,6.52
2017-11-04T00:18:19.095Z,6.36
2017-11-04T00:19:19.110Z,6.28
2017-11-04T00:20:19.125Z,6.20
2017-11-04T00:21:19.139Z,6.26
2017-11-04T00:22:19.156Z,6.30
2017-11-04T00:23:19.169Z,6.36
2017-11-04T00:24:19.188Z,6.16
2017-11-04T00:25:19.199Z,6.11
2017-11-04T00:26:19.213Z,6.16
2017-11-04T00:27:19.229Z,6.17
2017-11-04T00:28:19.247Z,6.33
2017-11-04T00:29:19.258Z,6.46
2017-11-04T00:30:19.276Z,6.54
2017-11-04T00:31:19.294Z,6.44
2017-11-04T00:32:19.308Z,6.45
2017-11-04T00:33:19.320Z,6.45
2017-11-04T00:34:19.337Z,6.36
2017-11-04T00:35:19.357Z,6.28
2017-11-04T00:36:19.364Z,6.12
2017-11-04T00:37:19.380Z,6.19
2017-11-04T00:38:19.397Z,6.28
2017-11-04T00:39:19.411Z,6.38
2017-11-04T00:40:19.431Z,6.35
2017-11-04T00:41:19.440Z,6.42
2017-11-04T00:42:19.460Z,6.19
2017-11-04T00:43:19.473Z,6.17
2017-11-04T00:44:19.494Z,6.20
2017-11-04T00:45:19.503Z,6.22
2017-11-04T00:46:19.518Z,6.11
2017-11-04T00:47:19.532Z,5.98
2017-11-04T00:48:19.548Z,5.89
2017-11-04T00:49:19.564Z,6.01
2017-11-04T00:50:19.579Z,6.01
2017-11-04T00:51:19.594Z,5.98
2017-11-04T00:52:19.610Z,5.84
2017-11-04T00:53:19.624Z,5.86
2017-11-04T00:54:19.641Z,5.99
2017-11-04T00:55:19.656Z,6.04
2017-11-04T00:56:19.672Z,6.01
2017-11-04T00:57:19.684Z,6.11
2017-11-04T00:58:19.709Z,6.14
2017-11-04T00:59:19.716Z,6.02
2017-11-04T01:00:19.732Z,6.07
2017-11-04T01:01:19.748Z,6.16
2017-11-04T01:02:19.761Z,6.19
2017-11-04T01:03:19.778Z,6.07
2017-11-04T01:04:19.792Z,5.97
2017-11-04T01:05:19.807Z,5.97
2017-11-04T01:06:19.824Z,6.16
2017-11-04T01:07:19.838Z,6.28
2017-11-04T01:08:19.854Z,6.41
2017-11-04T01:09:19.869Z,6.48
2017-11-04T01:10:19.883Z,6.63
2017-11-04T01:11:19.900Z,6.67
2017-11-04T01:12:19.915Z,6.59
2017-11-04T01:13:19.928Z,6.42
2017-11-04T01:14:19.945Z,6.46
2017-11-04T01:15:19.959Z,6.56
2017-11-04T01:16:19.974Z,6.62
2017-11-04T01:17:19.989Z,6.79
2017-11-04T01:18:20.048Z,6.64
2017-11-04T01:19:20.020Z,6.60
2017-11-04T01:20:20.035Z,6.59
2017-11-04T01:21:20.051Z,6.56
2017-11-04T01:22:20.067Z,6.45
2017-11-04T01:23:20.083Z,6.46
2017-11-04T01:24:20.096Z,6.41
2017-11-04T01:25:20.111Z,6.20
2017-11-04T01:26:20.130Z,6.14
2017-11-04T01:27:20.144Z,6.16
2017-11-04T01:28:20.159Z,5.98
2017-11-04T01:29:20.174Z,6.05
2017-11-04T01:30:20.193Z,6.28
2017-11-04T01:31:20.204Z,6.42
2017-11-04T01:32:20.220Z,6.26
2017-11-04T01:33:20.233Z,6.42
2017-11-04T01:34:20.249Z,6.39
2017-11-04T01:35:20.266Z,6.28
2017-11-04T01:36:20.280Z,6.48
2017-11-04T01:37:20.294Z,6.59
2017-11-04T01:38:20.318Z,6.45
2017-11-04T01:39:20.330Z,6.49
2017-11-04T01:40:20.344Z,6.60
2017-11-04T01:41:20.357Z,6.62
2017-11-04T01:42:20.373Z,6.74
2017-11-04T01:43:20.452Z,6.67
2017-11-04T01:44:20.404Z,6.72
2017-11-04T01:45:20.417Z,6.72
2017-11-04T01:46:20.432Z,6.72
2017-11-04T01:47:20.450Z,6.70
2017-11-04T01:48:20.463Z,6.63
2017-11-04T01:49:20.482Z,6.75
2017-11-04T01:50:20.494Z,6.74
2017-11-04T01:51:20.512Z,6.64
2017-11-04T01:52:20.526Z,6.59
2017-11-04T01:53:20.541Z,6.64
2017-11-04T01:54:20.559Z,6.63
2017-11-04T01:55:20.572Z,6.72
2017-11-04T01:56:20.588Z,6.66
2017-11-04T01:57:20.601Z,6.66
2017-11-04T01:58:20.623Z,6.70
2017-11-04T01:59:20.635Z,6.84
2017-11-04T02:00:20.648Z,6.78
2017-11-04T02:01:20.668Z,6.77
2017-11-04T02:02:20.681Z,6.85
2017-11-04T02:03:20.695Z,6.84
2017-11-04T02:04:20.711Z,6.75
2017-11-04T02:05:20.727Z,6.82
2017-11-04T02:06:20.738Z,6.81
2017-11-04T02:07:20.756Z,6.79
2017-11-04T02:08:20.772Z,6.85
2017-11-04T02:09:20.789Z,6.79
2017-11-04T02:10:20.806Z,6.70
2017-11-04T02:11:20.821Z,6.72
2017-11-04T02:12:20.833Z,6.64
2017-11-04T02:13:20.850Z,6.63
2017-11-04T02:14:20.862Z,6.66
2017-11-04T02:15:20.881Z,6.70
2017-11-04T02:16:20.896Z,6.77
2017-11-04T02:17:20.911Z,6.78
2017-11-04T02:18:20.928Z,6.85
2017-11-04T02:19:20.943Z,6.81
2017-11-04T02:20:20.963Z,6.66
2017-11-04T02:21:20.975Z,6.66
2017-11-04T02:22:20.988Z,6.59
2017-11-04T02:23:21.003Z,6.72
2017-11-04T02:24:21.018Z,6.75
2017-11-04T02:25:21.041Z,6.97
2017-11-04T02:26:21.048Z,6.99
2017-11-04T02:27:21.064Z,7.13
2017-11-04T02:28:21.080Z,7.05
2017-11-04T02:29:21.093Z,6.96
2017-11-04T02:30:21.111Z,6.81
2017-11-04T02:31:21.127Z,6.81
2017-11-04T02:32:21.144Z,6.95
2017-11-04T02:33:21.156Z,7.15
2017-11-04T02:34:21.174Z,7.13
2017-11-04T02:35:21.188Z,7.24
2017-11-04T02:36:21.202Z,7.32
2017-11-04T02:37:21.219Z,7.32
2017-11-04T02:38:21.235Z,7.33
2017-11-04T02:39:21.249Z,7.35
2017-11-04T02:40:21.265Z,7.15
2017-11-04T02:41:21.298Z,7.17
2017-11-04T02:42:21.294Z,7.21
2017-11-04T02:43:21.318Z,7.20
2017-11-04T02:44:21.335Z,7.31
2017-11-04T02:45:21.372Z,7.39
2017-11-04T02:46:21.358Z,7.32
2017-11-04T02:47:21.374Z,7.35
2017-11-04T02:48:21.388Z,7.53
2017-11-04T02:49:21.407Z,7.47
2017-11-04T02:50:21.421Z,7.66
2017-11-04T02:51:21.440Z,7.63
2017-11-04T02:52:21.455Z,7.61
2017-11-04T02:53:21.466Z,7.48
2017-11-04T02:54:21.482Z,7.35
2017-11-04T02:55:21.500Z,7.36
2017-11-04T02:56:21.515Z,7.48
2017-11-04T02:57:21.529Z,7.60
2017-11-04T02:58:21.547Z,7.79
2017-11-04T02:59:21.561Z,7.83
2017-11-04T03:00:21.577Z,7.93
2017-11-04T03:01:21.591Z,7.85
2017-11-04T03:02:21.606Z,7.76
2017-11-04T03:03:21.623Z,7.85
2017-11-04T03:04:21.638Z,7.85
2017-11-04T03:05:21.654Z,7.79
2017-11-04T03:06:21.673Z,7.79
2017-11-04T03:07:21.686Z,7.85
2017-11-04T03:08:21.702Z,7.87
2017-11-04T03:09:21.718Z,7.95
2017-11-04T03:10:21.733Z,8.00
2017-11-04T03:11:21.748Z,7.93
2017-11-04T03:12:21.765Z,7.83
2017-11-04T03:13:21.778Z,7.90
2017-11-04T03:14:21.796Z,7.83
2017-11-04T03:15:21.811Z,7.91
2017-11-04T03:16:21.828Z,8.03
2017-11-04T03:17:21.840Z,8.06
2017-11-04T03:18:21.857Z,8.15
2017-11-04T03:19:21.875Z,8.13
2017-11-04T03:20:21.891Z,8.23
2017-11-04T03:21:21.907Z,8.20
2017-11-04T03:22:21.923Z,8.26
2017-11-04T03:23:21.936Z,8.31
2017-11-04T03:24:21.952Z,8.19
2017-11-04T03:25:21.968Z,8.34
2017-11-04T03:26:21.984Z,8.42
2017-11-04T03:27:22.003Z,8.42
2017-11-04T03:28:22.017Z,8.48
2017-11-04T03:29:22.033Z,8.42
2017-11-04T03:30:22.052Z,8.37
2017-11-04T03:31:22.065Z,8.55
2017-11-04T03:32:22.082Z,8.53
2017-11-04T03:33:22.098Z,8.38
2017-11-04T03:34:22.113Z,8.44
2017-11-04T03:35:22.127Z,8.48
2017-11-04T03:36:22.143Z,8.56
2017-11-04T03:37:22.165Z,8.64
2017-11-04T03:38:22.176Z,8.45
2017-11-04T03:39:22.194Z,8.45
2017-11-04T03:40:22.209Z,8.51
2017-11-04T03:41:22.234Z,8.61
2017-11-04T03:42:22.243Z,8.63
2017-11-04T03:43:22.257Z,8.58
2017-11-04T03:44:22.275Z,8.64
2017-11-04T03:45:22.288Z,8.64
2017-11-04T03:46:22.304Z,8.70
2017-11-04T03:47:22.364Z,8.70
2017-11-04T03:48:22.337Z,8.70
2017-11-04T03:49:22.352Z,8.55
2017-11-04T03:50:22.369Z,8.56
2017-11-04T03:51:22.384Z,8.64
2017-11-04T03:52:22.404Z,8.49
2017-11-04T03:53:22.417Z,8.61
2017-11-04T03:54:22.434Z,8.69
2017-11-04T03:55:22.450Z,8.69
2017-11-04T03:56:22.466Z,8.69
2017-11-04T03:57:22.480Z,8.67
2017-11-04T03:58:22.496Z,8.70
2017-11-04T03:59:22.513Z,8.74
2017-11-04T04:00:22.532Z,8.71
2017-11-04T04:01:22.545Z,8.66
2017-11-04T04:02:22.561Z,8.64
2017-11-04T04:03:22.584Z,8.55
2017-11-04T04:04:22.596Z,8.45
2017-11-04T04:05:22.611Z,8.49
2017-11-04T04:06:22.624Z,8.36
2017-11-04T04:07:22.642Z,8.55
2017-11-04T04:08:22.657Z,8.52
2017-11-04T04:09:22.674Z,8.38
2017-11-04T04:10:22.691Z,8.60
2017-11-04T04:11:22.706Z,8.56
2017-11-04T04:12:22.814Z,8.38
2017-11-04T04:13:22.739Z,8.49
2017-11-04T04:14:22.757Z,8.48
2017-11-04T04:15:22.770Z,8.49
2017-11-04T04:16:22.786Z,8.52
2017-11-04T04:17:22.804Z,8.61
2017-11-04T04:18:22.818Z,8.60
2017-11-04T04:19:22.839Z,8.60
2017-11-04T04:20:22.855Z,8.52
2017-11-04T04:21:22.866Z,8.76
2017-11-04T04:22:22.882Z,8.71
2017-11-04T04:23:22.898Z,8.81
2017-11-04T04:24:22.918Z,8.49
2017-11-04T04:25:22.931Z,8.58
2017-11-04T04:26:22.949Z,8.63
2017-11-04T04:27:22.963Z,8.55
2017-11-04T04:28:22.980Z,8.71
2017-11-04T04:29:22.999Z,8.82
2017-11-04T04:30:23.009Z,8.71
2017-11-04T04:31:23.028Z,8.78
2017-11-04T04:32:23.046Z,8.71
2017-11-04T04:33:23.060Z,8.82
2017-11-04T04:34:23.075Z,8.81
2017-11-04T04:35:23.094Z,8.73
2017-11-04T04:36:23.109Z,8.71
2017-11-04T04:37:23.122Z,8.69
2017-11-04T04:38:23.142Z,8.73
2017-11-04T04:39:23.157Z,8.69
2017-11-04T04:40:23.172Z,8.64
2017-11-04T04:41:23.188Z,8.52
2017-11-04T04:42:23.206Z,8.69
2017-11-04T04:43:23.221Z,8.61
2017-11-04T04:44:23.237Z,8.56
2017-11-04T04:45:23.253Z,8.52
2017-11-04T04:46:23.268Z,8.55
2017-11-04T04:47:23.287Z,8.48
2017-11-04T04:48:23.300Z,8.46
2017-11-04T04:49:23.318Z,8.38
2017-11-04T04:50:23.334Z,8.44
2017-11-04T04:51:23.348Z,8.49
2017-11-04T04:52:23.371Z,8.52
2017-11-04T04:53:23.381Z,8.48
2017-11-04T04:54:23.397Z,8.56
2017-11-04T04:55:23.416Z,8.61
2017-11-04T04:56:23.430Z,8.56
2017-11-04T04:57:23.448Z,8.55
2017-11-04T04:58:23.463Z,8.61
2017-11-04T04:59:23.476Z,8.73
2017-11-04T05:00:23.492Z,8.74
2017-11-04T05:01:23.509Z,8.76
2017-11-04T05:02:23.526Z,8.73
2017-11-04T05:03:23.548Z,8.46
2017-11-04T05:04:23.557Z,8.42
2017-11-04T05:05:23.573Z,8.49
2017-11-04T05:06:23.591Z,8.55
2017-11-04T05:07:23.605Z,8.49
2017-11-04T05:08:23.622Z,8.49
2017-11-04T05:09:23.639Z,8.48
2017-11-04T05:10:23.656Z,8.48
2017-11-04T05:11:23.680Z,8.41
2017-11-04T05:12:23.686Z,8.42
2017-11-04T05:13:23.702Z,8.51
2017-11-04T05:14:23.719Z,8.28
2017-11-04T05:15:23.733Z,8.33
2017-11-04T05:16:23.752Z,8.24
2017-11-04T05:17:23.802Z,8.33
2017-11-04T05:18:23.789Z,8.33
2017-11-04T05:19:23.798Z,8.34
2017-11-04T05:20:23.828Z,8.41
2017-11-04T05:21:23.828Z,8.31
2017-11-04T05:22:23.845Z,8.36
2017-11-04T05:23:23.861Z,8.36
2017-11-04T05:24:23.878Z,8.34
2017-11-04T05:25:23.893Z,8.13
2017-11-04T05:26:23.909Z,8.15
2017-11-04T05:27:23.923Z,8.31
2017-11-04T05:28:23.939Z,8.24
2017-11-04T05:29:23.955Z,8.28
2017-11-04T05:30:23.973Z,8.38
2017-11-04T05:31:23.992Z,8.31
2017-11-04T05:32:24.018Z,8.31
2017-11-04T05:33:24.018Z,8.15
2017-11-04T05:34:24.035Z,8.27
2017-11-04T05:35:24.049Z,8.27
2017-11-04T05:36:24.067Z,8.36
2017-11-04T05:37:24.082Z,8.20
2017-11-04T05:38:24.096Z,7.98
2017-11-04T05:39:24.131Z,7.82
2017-11-04T05:40:24.130Z,7.83
2017-11-04T05:41:24.147Z,7.77
2017-11-04T05:42:24.162Z,7.75
2017-11-04T05:43:24.179Z,7.80
2017-11-04T05:44:24.192Z,7.85
2017-11-04T05:45:24.209Z,7.66
2017-11-04T05:46:24.228Z,7.69
2017-11-04T05:47:24.244Z,7.66
2017-11-04T05:48:24.266Z,7.50
2017-11-04T05:49:24.274Z,7.53
2017-11-04T05:50:24.297Z,7.67
2017-11-04T05:51:24.308Z,7.79
2017-11-04T05:52:24.325Z,7.85
2017-11-04T05:53:24.335Z,8.03
2017-11-04T05:54:24.354Z,8.13
2017-11-04T05:55:24.369Z,8.20
2017-11-04T05:56:24.386Z,8.23
2017-11-04T05:57:24.399Z,8.18
2017-11-04T05:58:24.417Z,8.19
2017-11-04T05:59:24.434Z,8.19
2017-11-04T06:00:24.453Z,8.18
2017-11-04T06:01:24.462Z,8.12
2017-11-04T06:02:24.484Z,8.15
2017-11-04T06:03:24.493Z,8.19
2017-11-04T06:04:24.510Z,8.19
2017-11-04T06:05:24.525Z,8.01
2017-11-04T06:06:24.548Z,8.06
2017-11-04T06:07:24.559Z,8.13
2017-11-04T06:08:24.579Z,8.16
2017-11-04T06:09:24.589Z,8.28
2017-11-04T06:10:24.607Z,8.16
2017-11-04T06:11:24.625Z,8.24
2017-11-04T06:12:24.641Z,8.33
2017-11-04T06:13:24.655Z,8.28
2017-11-04T06:14:24.669Z,8.24
2017-11-04T06:15:24.695Z,8.19
2017-11-04T06:16:24.702Z,8.15
2017-11-04T06:17:24.716Z,8.13
2017-11-04T06:18:24.731Z,8.18
2017-11-04T06:19:24.751Z,8.28
2017-11-04T06:20:24.766Z,8.16
2017-11-04T06:21:24.781Z,8.16
2017-11-04T06:22:24.799Z,8.23
2017-11-04T06:23:24.811Z,8.15
2017-11-04T06:24:24.835Z,8.19
2017-11-04T06:25:24.843Z,8.18
2017-11-04T06:26:24.858Z,8.08
2017-11-04T06:27:24.874Z,8.10
2017-11-04T06:28:24.890Z,8.15
2017-11-04T06:29:24.904Z,8.19
2017-11-04T06:30:24.923Z,8.19
2017-11-04T06:31:24.945Z,8.18
2017-11-04T06:32:24.951Z,8.18
2017-11-04T06:33:24.970Z,8.23
2017-11-04T06:34:24.987Z,8.09
2017-11-04T06:35:25.000Z,8.03
2017-11-04T06:36:25.021Z,8.10
2017-11-04T06:37:25.030Z,8.13
2017-11-04T06:38:25.051Z,8.12
2017-11-04T06:39:25.063Z,8.15
2017-11-04T06:40:25.084Z,8.10
2017-11-04T06:41:25.097Z,8.06
2017-11-04T06:42:25.111Z,8.15
2017-11-04T06:43:25.131Z,8.01
2017-11-04T06:44:25.146Z,8.05
2017-11-04T06:45:25.157Z,8.01
2017-11-04T06:46:25.177Z,7.97
2017-11-04T06:47:25.191Z,7.77
2017-11-04T06:48:25.206Z,7.91
2017-11-04T06:49:25.221Z,7.98
2017-11-04T06:50:25.237Z,7.79
2017-11-04T06:51:25.252Z,7.79
2017-11-04T06:52:25.269Z,7.85
2017-11-04T06:53:25.282Z,7.90
2017-11-04T06:54:25.302Z,7.75
2017-11-04T06:55:25.314Z,7.88
2017-11-04T06:56:25.332Z,7.88
2017-11-04T06:57:25.347Z,7.87
2017-11-04T06:58:25.364Z,7.93
2017-11-04T06:59:25.378Z,7.90
2017-11-04T07:00:25.393Z,7.76
2017-11-04T07:01:25.413Z,7.93
2017-11-04T07:02:25.427Z,7.83
2017-11-04T07:03:25.440Z,7.91
2017-11-04T07:04:25.459Z,8.01
2017-11-04T07:05:25.474Z,8.16
2017-11-04T07:06:25.489Z,8.13
2017-11-04T07:07:25.506Z,7.91
2017-11-04T07:08:25.520Z,7.80
2017-11-04T07:09:25.536Z,7.57
2017-11-04T07:10:25.549Z,7.50
2017-11-04T07:11:25.568Z,7.77
2017-11-04T07:12:25.587Z,7.88
2017-11-04T07:13:25.597Z,8.06
2017-11-04T07:14:25.623Z,8.09
2017-11-04T07:15:25.631Z,8.19
2017-11-04T07:16:25.648Z,8.28
2017-11-04T07:17:25.663Z,8.28
2017-11-04T07:18:25.680Z,8.34
2017-11-04T07:19:25.695Z,8.45
2017-11-04T07:20:25.710Z,8.31
2017-11-04T07:21:25.727Z,8.27
2017-11-04T07:22:25.743Z,8.08
2017-11-04T07:23:25.759Z,8.08
2017-11-04T07:24:25.775Z,8.18
2017-11-04T07:25:25.790Z,8.30
2017-11-04T07:26:25.808Z,8.45
2017-11-04T07:27:25.822Z,8.16
2017-11-04T07:28:25.837Z,8.38
2017-11-04T07:29:25.859Z,8.44
2017-11-04T07:30:25.870Z,8.45
2017-11-04T07:31:25.886Z,8.38
2017-11-04T07:32:25.903Z,8.42
2017-11-04T07:33:25.943Z,8.45
2017-11-04T07:34:25.985Z,8.18
2017-11-04T07:35:25.997Z,8.28
2017-11-04T07:36:26.002Z,8.41
2017-11-04T07:37:26.154Z,8.31
2017-11-04T07:38:26.116Z,8.48
2017-11-04T07:39:26.131Z,8.55
2017-11-04T07:40:26.036Z,8.61
2017-11-04T07:41:26.138Z,8.73
2017-11-04T07:42:26.062Z,8.58
2017-11-04T07:43:26.309Z,8.36
2017-11-04T07:44:26.106Z,8.51
2017-11-04T07:45:26.147Z,8.58
2017-11-04T07:46:26.124Z,8.66
2017-11-04T07:47:26.141Z,8.76
2017-11-04T07:48:26.159Z,8.73
2017-11-04T07:49:26.172Z,8.94
2017-11-04T07:50:26.190Z,8.97
2017-11-04T07:51:26.212Z,9.16
2017-11-04T07:52:26.222Z,9.25
2017-11-04T07:53:26.237Z,9.34
2017-11-04T07:54:26.275Z,9.44
2017-11-04T07:55:26.271Z,9.54
2017-11-04T07:56:26.289Z,9.48
2017-11-04T07:57:26.303Z,9.50
2017-11-04T07:58:26.321Z,9.62
2017-11-04T07:59:26.334Z,9.62
2017-11-04T08:00:26.354Z,9.50
2017-11-04T08:01:26.366Z,9.55
2017-11-04T08:02:26.382Z,9.65
2017-11-04T08:03:26.406Z,9.61
2017-11-04T08:04:26.415Z,9.76
2017-11-04T08:05:26.432Z,9.92
2017-11-04T08:06:26.446Z,9.83
2017-11-04T08:07:26.465Z,9.77
2017-11-04T08:08:26.484Z,9.92
2017-11-04T08:09:26.496Z,10.01
2017-11-04T08:10:26.514Z,10.16
2017-11-04T08:11:26.533Z,10.28
2017-11-04T08:12:26.553Z,10.26
2017-11-04T08:13:26.561Z,10.40
2017-11-04T08:14:26.580Z,10.49
2017-11-04T08:15:26.598Z,10.40
2017-11-04T08:16:26.613Z,10.20
2017-11-04T08:17:26.635Z,10.37
2017-11-04T08:18:26.648Z,10.10
2017-11-04T08:19:26.664Z,10.23
2017-11-04T08:20:26.680Z,9.97
2017-11-04T08:21:26.696Z,9.84
2017-11-04T08:22:26.714Z,9.97
2017-11-04T08:23:26.730Z,9.74
2017-11-04T08:24:26.763Z,9.83
2017-11-04T08:25:26.764Z,9.98
2017-11-04T08:26:26.781Z,10.05
2017-11-04T08:27:26.805Z,10.05
2017-11-04T08:28:26.822Z,10.17
2017-11-04T08:29:26.832Z,9.98
2017-11-04T08:30:26.847Z,9.84
2017-11-04T08:31:26.866Z,10.30
2017-11-04T08:32:26.883Z,10.46
2017-11-04T08:33:26.901Z,10.56
2017-11-04T08:34:26.932Z,10.37
2017-11-04T08:35:26.937Z,10.26
2017-11-04T08:36:26.952Z,10.19
2017-11-04T08:37:26.968Z,10.28
2017-11-04T08:38:26.983Z,10.23
2017-11-04T08:39:27.022Z,10.23
2017-11-04T08:40:27.017Z,10.42
2017-11-04T08:41:27.035Z,10.28
2017-11-04T08:42:27.051Z,9.98
2017-11-04T08:43:27.067Z,10.15
2017-11-04T08:44:27.085Z,10.26
2017-11-04T08:45:27.103Z,9.92
2017-11-04T08:46:27.119Z,9.77
2017-11-04T08:47:27.136Z,9.94
2017-11-04T08:48:27.151Z,10.34
2017-11-04T08:49:27.236Z,10.64
2017-11-04T08:50:27.193Z,10.63
2017-11-04T08:51:27.204Z,10.26
2017-11-04T08:52:27.221Z,10.28
2017-11-04T08:53:27.238Z,10.33
2017-11-04T08:54:27.255Z,10.76
2017-11-04T08:55:27.272Z,10.78
2017-11-04T08:56:27.289Z,10.67
2017-11-04T08:57:27.308Z,10.93
2017-11-04T08:58:27.323Z,10.89
2017-11-04T08:59:27.341Z,10.94
2017-11-04T09:00:27.360Z,11.15
2017-11-04T09:01:27.374Z,11.22
2017-11-04T09:02:27.391Z,11.43
2017-11-04T09:03:27.409Z,11.08
2017-11-04T09:04:27.424Z,11.05
2017-11-04T09:05:27.443Z,10.87
2017-11-04T09:06:27.460Z,11.00
2017-11-04T09:07:27.488Z,10.68
2017-11-04T09:08:27.498Z,10.67
2017-11-04T09:09:27.516Z,10.60
2017-11-04T09:10:27.529Z,10.63
2017-11-04T09:11:27.548Z,10.54
2017-11-04T09:12:27.565Z,10.76
2017-11-04T09:13:27.581Z,10.79
2017-11-04T09:14:27.601Z,11.15
2017-11-04T09:15:27.616Z,11.18
2017-11-04T09:16:27.635Z,11.50
2017-11-04T09:17:27.652Z,11.52
2017-11-04T09:18:27.671Z,11.70
2017-11-04T09:19:27.688Z,11.40
2017-11-04T09:20:27.705Z,11.57
2017-11-04T09:21:27.720Z,11.63
2017-11-04T09:22:27.739Z,12.13
2017-11-04T09:23:27.758Z,12.43
2017-11-04T09:24:27.774Z,12.54
2017-11-04T09:25:27.794Z,12.00
2017-11-04T09:26:27.810Z,11.91
2017-11-04T09:27:27.828Z,12.02
2017-11-04T09:28:27.853Z,11.91
2017-11-04T09:29:27.863Z,12.36
2017-11-04T09:30:27.881Z,12.31
2017-11-04T09:31:27.901Z,12.73
2017-11-04T09:32:27.917Z,12.31
2017-11-04T09:33:27.933Z,12.25
2017-11-04T09:34:27.953Z,12.46
2017-11-04T09:35:27.971Z,12.06
2017-11-04T09:36:27.986Z,11.70
2017-11-04T09:37:28.006Z,11.86
2017-11-04T09:38:28.026Z,11.41
2017-11-04T09:39:28.047Z,11.25
2017-11-04T09:40:28.064Z,11.29
2017-11-04T09:41:28.077Z,11.44
2017-11-04T09:42:28.096Z,11.78
2017-11-04T09:43:28.114Z,11.68
2017-11-04T09:44:28.130Z,11.78
2017-11-04T09:45:28.148Z,11.91
2017-11-04T09:46:28.166Z,11.83
2017-11-04T09:47:28.190Z,11.91
2017-11-04T09:48:28.205Z,12.07
2017-11-04T09:49:28.219Z,12.25
2017-11-04T09:50:28.238Z,12.31
2017-11-04T09:51:28.260Z,12.00
2017-11-04T09:52:28.275Z,12.03
2017-11-04T09:53:28.291Z,12.21
2017-11-04T09:54:28.311Z,12.10
2017-11-04T09:55:28.328Z,12.15
2017-11-04T09:56:28.345Z,12.17
2017-11-04T09:57:28.361Z,12.29
2017-11-04T09:58:28.381Z,12.50
2017-11-04T09:59:28.402Z,12.21
2017-11-04T10:00:28.444Z,12.39
2017-11-04T10:01:28.433Z,12.47
2017-11-04T10:02:28.451Z,12.37
2017-11-04T10:03:28.476Z,12.27
2017-11-04T10:04:28.487Z,12.17
2017-11-04T10:05:28.506Z,12.24
2017-11-04T10:06:28.524Z,12.57
2017-11-04T10:07:28.544Z,12.31
2017-11-04T10:08:28.560Z,12.24
2017-11-04T10:09:28.578Z,12.31
2017-11-04T10:10:28.619Z,12.55
2017-11-04T10:11:28.614Z,12.64
2017-11-04T10:12:28.629Z,12.82
2017-11-04T10:13:28.649Z,12.64
2017-11-04T10:14:28.668Z,12.43
2017-11-04T10:15:28.684Z,12.27
2017-11-04T10:16:28.706Z,12.03
2017-11-04T10:17:28.723Z,12.29
2017-11-04T10:18:28.742Z,12.40
2017-11-04T10:19:28.760Z,12.55
2017-11-04T10:20:28.776Z,12.75
2017-11-04T10:21:28.794Z,12.97
2017-11-04T10:22:28.812Z,12.68
2017-11-04T10:23:28.829Z,13.03
2017-11-04T10:24:28.848Z,13.09
2017-11-04T10:25:28.868Z,13.05
2017-11-04T10:26:28.890Z,12.95
2017-11-04T10:27:28.903Z,12.32
2017-11-04T10:28:28.924Z,12.40
2017-11-04T10:29:28.940Z,12.54
2017-11-04T10:30:28.968Z,12.73
2017-11-04T10:31:28.987Z,12.82
2017-11-04T10:32:28.996Z,13.05
2017-11-04T10:33:29.019Z,13.12
2017-11-04T10:34:29.031Z,13.05
2017-11-04T10:35:29.049Z,12.94
2017-11-04T10:36:29.069Z,12.83
2017-11-04T10:37:29.091Z,12.94
2017-11-04T10:38:29.107Z,13.11
2017-11-04T10:39:29.123Z,12.64
2017-11-04T10:40:29.140Z,12.80
2017-11-04T10:41:29.159Z,12.42
2017-11-04T10:42:29.179Z,12.50
2017-11-04T10:43:29.200Z,12.67
2017-11-04T10:44:29.222Z,12.70
2017-11-04T10:45:29.231Z,12.32
2017-11-04T10:46:29.250Z,12.42
2017-11-04T10:47:29.272Z,12.28
2017-11-04T10:48:29.286Z,12.43
2017-11-04T10:49:29.305Z,12.40
2017-11-04T10:50:29.324Z,12.37
2017-11-04T10:51:29.344Z,12.29
2017-11-04T10:52:29.361Z,12.54
2017-11-04T10:53:29.376Z,12.54
2017-11-04T10:54:29.398Z,12.67
2017-11-04T10:55:29.415Z,12.75
2017-11-04T10:56:29.431Z,12.36
2017-11-04T10:57:29.449Z,12.45
2017-11-04T10:58:29.466Z,12.17
2017-11-04T10:59:29.485Z,12.42
2017-11-04T11:00:29.503Z,12.79
2017-11-04T11:01:29.521Z,12.86
2017-11-04T11:02:29.540Z,12.80
2017-11-04T11:03:29.563Z,12.87
2017-11-04T11:04:29.578Z,13.00
2017-11-04T11:05:29.598Z,12.94
2017-11-04T11:06:29.674Z,13.13
2017-11-04T11:07:29.632Z,13.12
2017-11-04T11:08:29.652Z,13.35
2017-11-04T11:09:29.671Z,13.09
2017-11-04T11:10:29.686Z,13.11
2017-11-04T11:11:29.705Z,12.80
2017-11-04T11:12:29.721Z,12.97
2017-11-04T11:13:29.742Z,12.83
2017-11-04T11:14:29.756Z,12.95
2017-11-04T11:15:29.782Z,12.70
2017-11-04T11:16:29.804Z,12.82
2017-11-04T11:17:29.997Z,12.83
2017-11-04T11:18:29.841Z,13.00
2017-11-04T11:19:29.853Z,12.98
2017-11-04T11:20:29.870Z,12.87
2017-11-04T11:21:29.890Z,13.12
2017-11-04T11:22:29.905Z,13.30
2017-11-04T11:23:29.927Z,13.39
2017-11-04T11:24:29.942Z,13.39
2017-11-04T11:25:29.960Z,13.56
2017-11-04T11:26:29.978Z,13.44
2017-11-04T11:27:29.994Z,13.38
2017-11-04T11:28:30.017Z,13.35
2017-11-04T11:29:30.035Z,13.28
2017-11-04T11:30:30.052Z,13.15
2017-11-04T11:31:30.072Z,13.27
2017-11-04T11:32:30.091Z,13.42
2017-11-04T11:33:30.104Z,13.60
2017-11-04T11:34:30.125Z,13.71
2017-11-04T11:35:30.142Z,13.70
2017-11-04T11:36:30.161Z,13.79
2017-11-04T11:37:30.181Z,13.41
2017-11-04T11:38:30.202Z,13.33
2017-11-04T11:39:30.215Z,13.38
2017-11-04T11:40:30.235Z,13.47
2017-11-04T11:41:30.252Z,13.12
2017-11-04T11:42:30.339Z,13.00
2017-11-04T11:43:30.289Z,12.80
2017-11-04T11:44:30.305Z,12.46
2017-11-04T11:45:30.329Z,12.32
2017-11-04T11:46:30.342Z,12.37
2017-11-04T11:47:30.361Z,12.62
2017-11-04T11:48:30.405Z,12.64
2017-11-04T11:49:30.397Z,12.42
2017-11-04T11:50:30.419Z,12.62
2017-11-04T11:51:30.436Z,12.79
2017-11-04T11:52:30.457Z,12.97
2017-11-04T11:53:30.471Z,12.87
2017-11-04T11:54:30.490Z,12.91
2017-11-04T11:55:30.507Z,12.98
2017-11-04T11:56:30.525Z,13.09
2017-11-04T11:57:30.542Z,12.95
2017-11-04T11:58:30.562Z,13.01
2017-11-04T11:59:30.580Z,12.91
2017-11-04T12:00:30.597Z,12.80
2017-11-04T12:01:30.613Z,12.95
2017-11-04T12:02:30.631Z,12.98
2017-11-04T12:03:30.647Z,12.64
2017-11-04T12:04:30.667Z,12.80
2017-11-04T12:05:30.687Z,12.42
2017-11-04T12:06:30.703Z,12.58
2017-11-04T12:07:30.813Z,12.80
2017-11-04T12:08:30.740Z,12.98
2017-11-04T12:09:30.759Z,13.28
2017-11-04T12:10:30.774Z,12.98
2017-11-04T12:11:30.795Z,13.03
2017-11-04T12:12:30.813Z,12.98
2017-11-04T12:13:30.829Z,12.76
2017-11-04T12:14:30.856Z,13.13
2017-11-04T12:15:30.865Z,13.19
2017-11-04T12:16:30.885Z,13.11
2017-11-04T12:17:30.901Z,13.18
2017-11-04T12:18:30.932Z,13.35
2017-11-04T12:19:30.938Z,13.47
2017-11-04T12:20:30.955Z,13.70
2017-11-04T12:21:30.973Z,13.42
2017-11-04T12:22:30.992Z,13.27
2017-11-04T12:23:31.011Z,13.83
2017-11-04T12:24:31.029Z,14.18
2017-11-04T12:25:31.061Z,14.33
2017-11-04T12:26:31.065Z,14.29
2017-11-04T12:27:31.085Z,13.89
2017-11-04T12:28:31.103Z,14.12
2017-11-04T12:29:31.122Z,14.17
2017-11-04T12:30:31.138Z,14.00
2017-11-04T12:31:31.156Z,13.99
2017-11-04T12:32:31.178Z,14.00
2017-11-04T12:33:31.196Z,14.17
2017-11-04T12:34:31.217Z,14.41
2017-11-04T12:35:31.237Z,14.14
2017-11-04T12:36:31.255Z,14.40
2017-11-04T12:37:31.270Z,14.77
2017-11-04T12:38:31.293Z,14.65
2017-11-04T12:39:31.309Z,14.54
2017-11-04T12:40:31.337Z,14.14
2017-11-04T12:41:31.344Z,14.30
2017-11-04T12:42:31.368Z,14.88
2017-11-04T12:43:31.384Z,15.15
2017-11-04T12:44:31.406Z,14.92
2017-11-04T12:45:31.422Z,14.44
2017-11-04T12:46:31.452Z,14.62
2017-11-04T12:47:31.462Z,14.78
2017-11-04T12:48:31.478Z,14.66
2017-11-04T12:49:31.497Z,14.88
2017-11-04T12:50:31.523Z,14.94
2017-11-04T12:51:31.540Z,14.97
2017-11-04T12:52:31.558Z,14.78
2017-11-04T12:53:31.575Z,14.85
2017-11-04T12:54:31.592Z,14.88
2017-11-04T12:55:31.619Z,14.78
2017-11-04T12:56:31.636Z,14.89
2017-11-04T12:57:31.653Z,14.91
2017-11-04T12:58:31.673Z,14.72
2017-11-04T12:59:31.691Z,14.50
2017-11-04T13:00:31.711Z,14.54
2017-11-04T13:01:31.732Z,14.55
2017-11-04T13:02:31.748Z,14.79
2017-11-04T13:03:31.777Z,14.63
2017-11-04T13:04:31.785Z,14.59
2017-11-04T13:05:31.806Z,14.59
2017-11-04T13:06:31.823Z,14.81
2017-11-04T13:07:31.844Z,14.82
2017-11-04T13:08:31.862Z,14.51